sensor_id;sensor_type;location;lat;lon;timestamp;P1;durP1;ratioP1;P2;durP2;ratioP2
11313;SDS011;5712;48.858;9.206;2024-02-26T00:01:46;1.60;;;1.43;;
11313;SDS011;5712;48.858;9.206;2024-02-26T00:04:13;1.70;;;1.60;;
11313;SDS011;5712;48.858;9.206;2024-02-26T00:06:41;2.53;;;1.63;;
11313;SDS011;5712;48.858;9.206;2024-02-26T00:09:07;1.67;;;1.53;;
11313;SDS011;5712;48.858;9.206;2024-02-26T00:11:34;1.47;;;1.23;;
11313;SDS011;5712;48.858;9.206;2024-02-26T00:14:01;1.97;;;1.77;;
11313;SDS011;5712;48.858;9.206;2024-02-26T00:16:28;1.50;;;1.40;;
11313;SDS011;5712;48.858;9.206;2024-02-26T00:18:56;2.40;;;1.53;;
11313;SDS011;5712;48.858;9.206;2024-02-26T00:21:22;3.10;;;1.67;;
11313;SDS011;5712;48.858;9.206;2024-02-26T00:23:50;1.40;;;1.30;;
11313;SDS011;5712;48.858;9.206;2024-02-26T00:26:17;3.13;;;1.40;;
11313;SDS011;5712;48.858;9.206;2024-02-26T00:28:43;1.70;;;1.60;;
11313;SDS011;5712;48.858;9.206;2024-02-26T00:31:10;2.17;;;1.87;;
11313;SDS011;5712;48.858;9.206;2024-02-26T00:33:36;2.60;;;1.60;;
11313;SDS011;5712;48.858;9.206;2024-02-26T00:36:03;1.60;;;1.33;;
11313;SDS011;5712;48.858;9.206;2024-02-26T00:38:30;1.60;;;1.50;;
11313;SDS011;5712;48.858;9.206;2024-02-26T00:40:58;3.47;;;2.00;;
11313;SDS011;5712;48.858;9.206;2024-02-26T00:43:25;1.77;;;1.50;;
11313;SDS011;5712;48.858;9.206;2024-02-26T00:45:51;1.40;;;1.30;;
11313;SDS011;5712;48.858;9.206;2024-02-26T00:48:18;2.60;;;1.60;;
11313;SDS011;5712;48.858;9.206;2024-02-26T00:50:44;3.00;;;2.00;;
11313;SDS011;5712;48.858;9.206;2024-02-26T00:53:11;1.87;;;1.60;;
11313;SDS011;5712;48.858;9.206;2024-02-26T00:55:37;3.57;;;1.90;;
11313;SDS011;5712;48.858;9.206;2024-02-26T00:58:05;2.97;;;1.70;;
11313;SDS011;5712;48.858;9.206;2024-02-26T01:00:31;1.87;;;1.50;;
11313;SDS011;5712;48.858;9.206;2024-02-26T01:02:58;1.73;;;1.50;;
11313;SDS011;5712;48.858;9.206;2024-02-26T01:05:25;1.63;;;1.50;;
11313;SDS011;5712;48.858;9.206;2024-02-26T01:07:51;1.67;;;1.30;;
11313;SDS011;5712;48.858;9.206;2024-02-26T01:10:18;2.63;;;1.57;;
11313;SDS011;5712;48.858;9.206;2024-02-26T01:12:44;2.23;;;1.50;;
11313;SDS011;5712;48.858;9.206;2024-02-26T01:15:12;1.40;;;1.30;;
11313;SDS011;5712;48.858;9.206;2024-02-26T01:17:39;1.70;;;1.40;;
11313;SDS011;5712;48.858;9.206;2024-02-26T01:20:05;1.47;;;1.20;;
11313;SDS011;5712;48.858;9.206;2024-02-26T01:22:33;2.73;;;1.37;;
11313;SDS011;5712;48.858;9.206;2024-02-26T01:25:00;1.93;;;1.40;;
11313;SDS011;5712;48.858;9.206;2024-02-26T01:27:26;1.83;;;1.53;;
11313;SDS011;5712;48.858;9.206;2024-02-26T01:29:53;1.80;;;1.40;;
11313;SDS011;5712;48.858;9.206;2024-02-26T01:32:21;1.73;;;1.50;;
11313;SDS011;5712;48.858;9.206;2024-02-26T01:34:48;1.57;;;1.37;;
11313;SDS011;5712;48.858;9.206;2024-02-26T01:37:14;2.50;;;1.67;;
11313;SDS011;5712;48.858;9.206;2024-02-26T01:39:41;1.73;;;1.60;;
11313;SDS011;5712;48.858;9.206;2024-02-26T01:42:07;2.80;;;1.60;;
11313;SDS011;5712;48.858;9.206;2024-02-26T01:44:34;2.20;;;1.60;;
11313;SDS011;5712;48.858;9.206;2024-02-26T01:47:00;1.67;;;1.40;;
11313;SDS011;5712;48.858;9.206;2024-02-26T01:49:29;1.90;;;1.23;;
11313;SDS011;5712;48.858;9.206;2024-02-26T01:51:56;3.23;;;1.50;;
11313;SDS011;5712;48.858;9.206;2024-02-26T01:54:23;1.57;;;1.40;;
11313;SDS011;5712;48.858;9.206;2024-02-26T01:56:50;2.03;;;1.40;;
11313;SDS011;5712;48.858;9.206;2024-02-26T01:59:17;2.53;;;1.90;;
11313;SDS011;5712;48.858;9.206;2024-02-26T02:01:44;1.90;;;1.43;;
11313;SDS011;5712;48.858;9.206;2024-02-26T02:04:14;2.07;;;1.50;;
11313;SDS011;5712;48.858;9.206;2024-02-26T02:06:43;1.50;;;1.30;;
11313;SDS011;5712;48.858;9.206;2024-02-26T02:09:11;1.80;;;1.40;;
11313;SDS011;5712;48.858;9.206;2024-02-26T02:11:38;2.13;;;1.60;;
11313;SDS011;5712;48.858;9.206;2024-02-26T02:14:04;1.70;;;1.57;;
11313;SDS011;5712;48.858;9.206;2024-02-26T02:16:32;1.40;;;1.30;;
11313;SDS011;5712;48.858;9.206;2024-02-26T02:18:59;2.00;;;1.40;;
11313;SDS011;5712;48.858;9.206;2024-02-26T02:21:27;1.63;;;1.40;;
11313;SDS011;5712;48.858;9.206;2024-02-26T02:23:53;2.27;;;1.53;;
11313;SDS011;5712;48.858;9.206;2024-02-26T02:26:20;3.47;;;1.53;;
11313;SDS011;5712;48.858;9.206;2024-02-26T02:28:46;2.27;;;1.60;;
11313;SDS011;5712;48.858;9.206;2024-02-26T02:31:14;2.10;;;1.40;;
11313;SDS011;5712;48.858;9.206;2024-02-26T02:33:41;1.47;;;1.37;;
11313;SDS011;5712;48.858;9.206;2024-02-26T02:36:09;2.10;;;1.50;;
11313;SDS011;5712;48.858;9.206;2024-02-26T02:38:37;1.40;;;1.30;;
11313;SDS011;5712;48.858;9.206;2024-02-26T02:41:04;2.30;;;1.60;;
11313;SDS011;5712;48.858;9.206;2024-02-26T02:43:31;1.53;;;1.30;;
11313;SDS011;5712;48.858;9.206;2024-02-26T02:45:57;2.83;;;1.60;;
11313;SDS011;5712;48.858;9.206;2024-02-26T02:48:24;2.63;;;1.60;;
11313;SDS011;5712;48.858;9.206;2024-02-26T02:50:50;1.80;;;1.43;;
11313;SDS011;5712;48.858;9.206;2024-02-26T02:53:17;2.40;;;1.77;;
11313;SDS011;5712;48.858;9.206;2024-02-26T02:55:45;1.93;;;1.43;;
11313;SDS011;5712;48.858;9.206;2024-02-26T02:58:11;2.90;;;1.77;;
11313;SDS011;5712;48.858;9.206;2024-02-26T03:00:38;1.60;;;1.40;;
11313;SDS011;5712;48.858;9.206;2024-02-26T03:03:04;4.90;;;1.90;;
11313;SDS011;5712;48.858;9.206;2024-02-26T03:05:31;4.23;;;1.70;;
11313;SDS011;5712;48.858;9.206;2024-02-26T03:07:57;2.33;;;1.70;;
11313;SDS011;5712;48.858;9.206;2024-02-26T03:10:24;2.67;;;1.77;;
11313;SDS011;5712;48.858;9.206;2024-02-26T03:12:53;1.60;;;1.30;;
11313;SDS011;5712;48.858;9.206;2024-02-26T03:15:19;2.30;;;1.40;;
11313;SDS011;5712;48.858;9.206;2024-02-26T03:17:46;2.27;;;1.60;;
11313;SDS011;5712;48.858;9.206;2024-02-26T03:20:12;2.83;;;1.80;;
11313;SDS011;5712;48.858;9.206;2024-02-26T03:22:39;2.97;;;1.80;;
11313;SDS011;5712;48.858;9.206;2024-02-26T03:25:06;1.60;;;1.50;;
11313;SDS011;5712;48.858;9.206;2024-02-26T03:27:33;1.87;;;1.57;;
11313;SDS011;5712;48.858;9.206;2024-02-26T03:30:01;1.50;;;1.30;;
11313;SDS011;5712;48.858;9.206;2024-02-26T03:32:28;1.50;;;1.13;;
11313;SDS011;5712;48.858;9.206;2024-02-26T03:34:55;1.40;;;1.30;;
11313;SDS011;5712;48.858;9.206;2024-02-26T03:37:21;1.80;;;1.30;;
11313;SDS011;5712;48.858;9.206;2024-02-26T03:39:48;1.80;;;1.37;;
11313;SDS011;5712;48.858;9.206;2024-02-26T03:42:14;1.93;;;1.57;;
11313;SDS011;5712;48.858;9.206;2024-02-26T03:44:41;1.40;;;1.30;;
11313;SDS011;5712;48.858;9.206;2024-02-26T03:47:09;2.80;;;1.80;;
11313;SDS011;5712;48.858;9.206;2024-02-26T03:49:35;2.13;;;1.40;;
11313;SDS011;5712;48.858;9.206;2024-02-26T03:52:02;1.77;;;1.57;;
11313;SDS011;5712;48.858;9.206;2024-02-26T03:54:29;2.73;;;1.80;;
11313;SDS011;5712;48.858;9.206;2024-02-26T03:56:55;2.43;;;2.07;;
11313;SDS011;5712;48.858;9.206;2024-02-26T03:59:22;3.27;;;1.70;;
11313;SDS011;5712;48.858;9.206;2024-02-26T04:01:50;2.83;;;1.83;;
11313;SDS011;5712;48.858;9.206;2024-02-26T04:04:17;2.10;;;1.90;;
11313;SDS011;5712;48.858;9.206;2024-02-26T04:06:44;2.07;;;1.50;;
11313;SDS011;5712;48.858;9.206;2024-02-26T04:09:10;2.03;;;1.80;;
11313;SDS011;5712;48.858;9.206;2024-02-26T04:11:37;2.10;;;1.80;;
11313;SDS011;5712;48.858;9.206;2024-02-26T04:14:03;2.10;;;1.90;;
11313;SDS011;5712;48.858;9.206;2024-02-26T04:16:31;2.10;;;1.87;;
11313;SDS011;5712;48.858;9.206;2024-02-26T04:18:57;2.50;;;2.17;;
11313;SDS011;5712;48.858;9.206;2024-02-26T04:21:25;2.50;;;1.90;;
11313;SDS011;5712;48.858;9.206;2024-02-26T04:23:51;2.10;;;1.90;;
11313;SDS011;5712;48.858;9.206;2024-02-26T04:26:20;2.17;;;1.60;;
11313;SDS011;5712;48.858;9.206;2024-02-26T04:28:46;2.67;;;1.80;;
11313;SDS011;5712;48.858;9.206;2024-02-26T04:31:13;2.43;;;1.80;;
11313;SDS011;5712;48.858;9.206;2024-02-26T04:33:39;1.90;;;1.70;;
11313;SDS011;5712;48.858;9.206;2024-02-26T04:36:11;1.57;;;1.47;;
11313;SDS011;5712;48.858;9.206;2024-02-26T04:38:40;1.53;;;1.43;;
11313;SDS011;5712;48.858;9.206;2024-02-26T04:41:07;2.90;;;1.60;;
11313;SDS011;5712;48.858;9.206;2024-02-26T04:43:33;1.57;;;1.40;;
11313;SDS011;5712;48.858;9.206;2024-02-26T04:46:00;3.17;;;1.90;;
11313;SDS011;5712;48.858;9.206;2024-02-26T04:48:27;1.70;;;1.60;;
11313;SDS011;5712;48.858;9.206;2024-02-26T04:50:53;2.87;;;1.67;;
11313;SDS011;5712;48.858;9.206;2024-02-26T04:53:20;1.70;;;1.60;;
11313;SDS011;5712;48.858;9.206;2024-02-26T04:55:48;1.80;;;1.57;;
11313;SDS011;5712;48.858;9.206;2024-02-26T04:58:14;2.00;;;1.53;;
11313;SDS011;5712;48.858;9.206;2024-02-26T05:00:41;1.57;;;1.27;;
11313;SDS011;5712;48.858;9.206;2024-02-26T05:03:07;1.87;;;1.37;;
11313;SDS011;5712;48.858;9.206;2024-02-26T05:05:38;2.30;;;1.47;;
11313;SDS011;5712;48.858;9.206;2024-02-26T05:08:04;2.13;;;1.60;;
11313;SDS011;5712;48.858;9.206;2024-02-26T05:10:32;1.60;;;1.50;;
11313;SDS011;5712;48.858;9.206;2024-02-26T05:13:01;3.13;;;1.80;;
11313;SDS011;5712;48.858;9.206;2024-02-26T05:15:27;1.60;;;1.50;;
11313;SDS011;5712;48.858;9.206;2024-02-26T05:17:54;2.17;;;1.50;;
11313;SDS011;5712;48.858;9.206;2024-02-26T05:20:20;2.07;;;1.73;;
11313;SDS011;5712;48.858;9.206;2024-02-26T05:22:47;2.10;;;1.60;;
11313;SDS011;5712;48.858;9.206;2024-02-26T05:25:14;2.77;;;1.50;;
11313;SDS011;5712;48.858;9.206;2024-02-26T05:27:41;2.50;;;1.60;;
11313;SDS011;5712;48.858;9.206;2024-02-26T05:30:10;2.03;;;1.40;;
11313;SDS011;5712;48.858;9.206;2024-02-26T05:32:37;2.10;;;1.40;;
11313;SDS011;5712;48.858;9.206;2024-02-26T05:35:04;1.77;;;1.57;;
11313;SDS011;5712;48.858;9.206;2024-02-26T05:37:31;2.10;;;1.80;;
11313;SDS011;5712;48.858;9.206;2024-02-26T05:39:58;2.47;;;1.50;;
11313;SDS011;5712;48.858;9.206;2024-02-26T05:42:25;2.07;;;1.87;;
11313;SDS011;5712;48.858;9.206;2024-02-26T05:44:51;2.03;;;1.60;;
11313;SDS011;5712;48.858;9.206;2024-02-26T05:47:19;2.00;;;1.50;;
11313;SDS011;5712;48.858;9.206;2024-02-26T05:49:46;2.77;;;1.70;;
11313;SDS011;5712;48.858;9.206;2024-02-26T05:52:13;2.53;;;1.50;;
11313;SDS011;5712;48.858;9.206;2024-02-26T05:54:40;1.87;;;1.60;;
11313;SDS011;5712;48.858;9.206;2024-02-26T05:57:06;2.57;;;1.77;;
11313;SDS011;5712;48.858;9.206;2024-02-26T05:59:33;4.50;;;1.73;;
11313;SDS011;5712;48.858;9.206;2024-02-26T06:01:59;2.73;;;1.90;;
11313;SDS011;5712;48.858;9.206;2024-02-26T06:04:27;1.63;;;1.53;;
11313;SDS011;5712;48.858;9.206;2024-02-26T06:06:54;1.50;;;1.40;;
11313;SDS011;5712;48.858;9.206;2024-02-26T06:09:22;3.13;;;1.80;;
11313;SDS011;5712;48.858;9.206;2024-02-26T06:11:48;1.93;;;1.63;;
11313;SDS011;5712;48.858;9.206;2024-02-26T06:14:15;1.70;;;1.60;;
11313;SDS011;5712;48.858;9.206;2024-02-26T06:16:43;1.73;;;1.60;;
11313;SDS011;5712;48.858;9.206;2024-02-26T06:19:09;4.27;;;1.87;;
11313;SDS011;5712;48.858;9.206;2024-02-26T06:21:37;1.87;;;1.67;;
11313;SDS011;5712;48.858;9.206;2024-02-26T06:24:04;2.13;;;1.67;;
11313;SDS011;5712;48.858;9.206;2024-02-26T06:26:30;3.87;;;1.90;;
11313;SDS011;5712;48.858;9.206;2024-02-26T06:28:58;2.77;;;1.97;;
11313;SDS011;5712;48.858;9.206;2024-02-26T06:31:25;3.30;;;2.00;;
11313;SDS011;5712;48.858;9.206;2024-02-26T06:33:52;3.17;;;2.07;;
11313;SDS011;5712;48.858;9.206;2024-02-26T06:36:19;2.70;;;1.87;;
11313;SDS011;5712;48.858;9.206;2024-02-26T06:38:47;3.10;;;1.90;;
11313;SDS011;5712;48.858;9.206;2024-02-26T06:41:14;2.47;;;1.90;;
11313;SDS011;5712;48.858;9.206;2024-02-26T06:43:40;1.80;;;1.50;;
11313;SDS011;5712;48.858;9.206;2024-02-26T06:46:07;2.07;;;1.80;;
11313;SDS011;5712;48.858;9.206;2024-02-26T06:48:33;2.67;;;2.10;;
11313;SDS011;5712;48.858;9.206;2024-02-26T06:51:01;2.00;;;1.80;;
11313;SDS011;5712;48.858;9.206;2024-02-26T06:53:28;2.40;;;1.77;;
11313;SDS011;5712;48.858;9.206;2024-02-26T06:55:56;3.33;;;2.30;;
11313;SDS011;5712;48.858;9.206;2024-02-26T06:58:22;2.37;;;2.00;;
11313;SDS011;5712;48.858;9.206;2024-02-26T07:00:49;2.47;;;2.27;;
11313;SDS011;5712;48.858;9.206;2024-02-26T07:03:15;2.97;;;2.00;;
11313;SDS011;5712;48.858;9.206;2024-02-26T07:05:42;2.17;;;1.80;;
11313;SDS011;5712;48.858;9.206;2024-02-26T07:08:10;2.07;;;1.87;;
11313;SDS011;5712;48.858;9.206;2024-02-26T07:10:36;2.10;;;1.90;;
11313;SDS011;5712;48.858;9.206;2024-02-26T07:13:04;2.13;;;1.90;;
11313;SDS011;5712;48.858;9.206;2024-02-26T07:15:31;2.40;;;1.90;;
11313;SDS011;5712;48.858;9.206;2024-02-26T07:17:58;1.70;;;1.60;;
11313;SDS011;5712;48.858;9.206;2024-02-26T07:20:28;1.87;;;1.70;;
11313;SDS011;5712;48.858;9.206;2024-02-26T07:22:54;2.17;;;1.83;;
11313;SDS011;5712;48.858;9.206;2024-02-26T07:25:21;2.63;;;2.13;;
11313;SDS011;5712;48.858;9.206;2024-02-26T07:27:48;3.30;;;1.87;;
11313;SDS011;5712;48.858;9.206;2024-02-26T07:30:16;3.10;;;2.20;;
11313;SDS011;5712;48.858;9.206;2024-02-26T07:32:42;2.80;;;1.93;;
11313;SDS011;5712;48.858;9.206;2024-02-26T07:35:09;2.13;;;1.80;;
11313;SDS011;5712;48.858;9.206;2024-02-26T07:37:36;2.03;;;1.83;;
11313;SDS011;5712;48.858;9.206;2024-02-26T07:40:03;3.00;;;2.07;;
11313;SDS011;5712;48.858;9.206;2024-02-26T07:42:30;2.93;;;2.10;;
11313;SDS011;5712;48.858;9.206;2024-02-26T07:44:57;3.30;;;2.13;;
11313;SDS011;5712;48.858;9.206;2024-02-26T07:47:25;2.83;;;2.07;;
11313;SDS011;5712;48.858;9.206;2024-02-26T07:49:51;3.10;;;2.40;;
11313;SDS011;5712;48.858;9.206;2024-02-26T07:52:18;2.63;;;1.93;;
11313;SDS011;5712;48.858;9.206;2024-02-26T07:54:44;3.10;;;2.57;;
11313;SDS011;5712;48.858;9.206;2024-02-26T07:57:11;3.97;;;2.20;;
11313;SDS011;5712;48.858;9.206;2024-02-26T07:59:40;3.40;;;2.53;;
11313;SDS011;5712;48.858;9.206;2024-02-26T08:02:07;2.90;;;2.10;;
11313;SDS011;5712;48.858;9.206;2024-02-26T08:04:34;3.73;;;2.53;;
11313;SDS011;5712;48.858;9.206;2024-02-26T08:07:01;5.37;;;2.83;;
11313;SDS011;5712;48.858;9.206;2024-02-26T08:09:27;5.83;;;3.50;;
11313;SDS011;5712;48.858;9.206;2024-02-26T08:11:54;3.53;;;3.13;;
11313;SDS011;5712;48.858;9.206;2024-02-26T08:14:20;5.47;;;3.80;;
11313;SDS011;5712;48.858;9.206;2024-02-26T08:16:47;4.03;;;3.30;;
11313;SDS011;5712;48.858;9.206;2024-02-26T08:19:14;3.20;;;2.77;;
11313;SDS011;5712;48.858;9.206;2024-02-26T08:21:42;4.53;;;3.50;;
11313;SDS011;5712;48.858;9.206;2024-02-26T08:24:08;4.93;;;3.03;;
11313;SDS011;5712;48.858;9.206;2024-02-26T08:26:35;4.90;;;3.40;;
11313;SDS011;5712;48.858;9.206;2024-02-26T08:29:01;5.77;;;3.33;;
11313;SDS011;5712;48.858;9.206;2024-02-26T08:31:28;5.37;;;3.10;;
11313;SDS011;5712;48.858;9.206;2024-02-26T08:33:55;4.97;;;3.70;;
11313;SDS011;5712;48.858;9.206;2024-02-26T08:36:23;5.33;;;3.53;;
11313;SDS011;5712;48.858;9.206;2024-02-26T08:38:51;4.80;;;3.30;;
11313;SDS011;5712;48.858;9.206;2024-02-26T08:41:17;3.47;;;2.87;;
11313;SDS011;5712;48.858;9.206;2024-02-26T08:43:44;6.20;;;3.13;;
11313;SDS011;5712;48.858;9.206;2024-02-26T08:46:12;6.07;;;3.23;;
11313;SDS011;5712;48.858;9.206;2024-02-26T08:48:38;6.23;;;2.83;;
11313;SDS011;5712;48.858;9.206;2024-02-26T08:51:05;4.10;;;2.80;;
11313;SDS011;5712;48.858;9.206;2024-02-26T08:53:32;4.17;;;3.07;;
11313;SDS011;5712;48.858;9.206;2024-02-26T08:56:00;4.53;;;3.20;;
11313;SDS011;5712;48.858;9.206;2024-02-26T08:58:27;4.67;;;2.43;;
11313;SDS011;5712;48.858;9.206;2024-02-26T09:00:53;2.83;;;2.50;;
11313;SDS011;5712;48.858;9.206;2024-02-26T09:03:20;4.27;;;2.50;;
11313;SDS011;5712;48.858;9.206;2024-02-26T09:05:46;3.87;;;2.63;;
11313;SDS011;5712;48.858;9.206;2024-02-26T09:08:13;3.07;;;2.30;;
11313;SDS011;5712;48.858;9.206;2024-02-26T09:10:40;4.53;;;2.83;;
11313;SDS011;5712;48.858;9.206;2024-02-26T09:13:08;3.63;;;2.57;;
11313;SDS011;5712;48.858;9.206;2024-02-26T09:15:34;3.53;;;2.67;;
11313;SDS011;5712;48.858;9.206;2024-02-26T09:18:01;3.07;;;2.40;;
11313;SDS011;5712;48.858;9.206;2024-02-26T09:20:28;3.83;;;2.80;;
11313;SDS011;5712;48.858;9.206;2024-02-26T09:22:54;2.90;;;2.13;;
11313;SDS011;5712;48.858;9.206;2024-02-26T09:25:21;3.97;;;2.20;;
11313;SDS011;5712;48.858;9.206;2024-02-26T09:27:47;2.90;;;2.40;;
11313;SDS011;5712;48.858;9.206;2024-02-26T09:30:15;3.07;;;2.10;;
11313;SDS011;5712;48.858;9.206;2024-02-26T09:32:45;3.10;;;2.28;;
11313;SDS011;5712;48.858;9.206;2024-02-26T09:35:13;3.37;;;2.33;;
11313;SDS011;5712;48.858;9.206;2024-02-26T09:37:39;2.80;;;2.33;;
11313;SDS011;5712;48.858;9.206;2024-02-26T09:40:08;2.80;;;2.40;;
11313;SDS011;5712;48.858;9.206;2024-02-26T09:42:36;3.23;;;2.17;;
11313;SDS011;5712;48.858;9.206;2024-02-26T09:45:09;3.17;;;2.47;;
11313;SDS011;5712;48.858;9.206;2024-02-26T09:47:40;2.63;;;2.27;;
11313;SDS011;5712;48.858;9.206;2024-02-26T09:50:07;2.87;;;2.47;;
11313;SDS011;5712;48.858;9.206;2024-02-26T09:52:37;4.07;;;2.63;;
11313;SDS011;5712;48.858;9.206;2024-02-26T09:55:04;2.83;;;2.50;;
11313;SDS011;5712;48.858;9.206;2024-02-26T09:57:31;4.27;;;2.73;;
11313;SDS011;5712;48.858;9.206;2024-02-26T09:59:59;3.00;;;2.70;;
11313;SDS011;5712;48.858;9.206;2024-02-26T10:02:28;3.13;;;2.20;;
11313;SDS011;5712;48.858;9.206;2024-02-26T10:04:57;4.00;;;2.93;;
11313;SDS011;5712;48.858;9.206;2024-02-26T10:07:26;2.87;;;2.47;;
11313;SDS011;5712;48.858;9.206;2024-02-26T10:09:55;3.10;;;2.50;;
11313;SDS011;5712;48.858;9.206;2024-02-26T10:12:21;3.87;;;2.70;;
11313;SDS011;5712;48.858;9.206;2024-02-26T10:14:50;4.00;;;2.47;;
11313;SDS011;5712;48.858;9.206;2024-02-26T10:17:17;2.70;;;2.20;;
11313;SDS011;5712;48.858;9.206;2024-02-26T10:19:45;3.07;;;2.43;;
11313;SDS011;5712;48.858;9.206;2024-02-26T10:22:13;3.20;;;2.60;;
11313;SDS011;5712;48.858;9.206;2024-02-26T10:24:39;3.57;;;2.70;;
11313;SDS011;5712;48.858;9.206;2024-02-26T10:27:06;3.50;;;2.50;;
11313;SDS011;5712;48.858;9.206;2024-02-26T10:29:34;4.67;;;2.27;;
11313;SDS011;5712;48.858;9.206;2024-02-26T10:32:01;3.97;;;2.40;;
11313;SDS011;5712;48.858;9.206;2024-02-26T10:34:27;3.00;;;2.47;;
11313;SDS011;5712;48.858;9.206;2024-02-26T10:36:54;3.73;;;2.40;;
11313;SDS011;5712;48.858;9.206;2024-02-26T10:39:22;2.83;;;2.40;;
11313;SDS011;5712;48.858;9.206;2024-02-26T10:41:49;5.37;;;2.43;;
11313;SDS011;5712;48.858;9.206;2024-02-26T10:44:16;3.53;;;2.37;;
11313;SDS011;5712;48.858;9.206;2024-02-26T10:46:42;2.67;;;2.47;;
11313;SDS011;5712;48.858;9.206;2024-02-26T10:49:13;1.90;;;1.80;;
11313;SDS011;5712;48.858;9.206;2024-02-26T10:51:40;2.77;;;2.13;;
11313;SDS011;5712;48.858;9.206;2024-02-26T10:54:12;2.73;;;2.00;;
11313;SDS011;5712;48.858;9.206;2024-02-26T10:56:42;2.03;;;1.83;;
11313;SDS011;5712;48.858;9.206;2024-02-26T10:59:09;2.20;;;2.00;;
11313;SDS011;5712;48.858;9.206;2024-02-26T11:01:36;2.37;;;2.00;;
11313;SDS011;5712;48.858;9.206;2024-02-26T11:04:03;3.17;;;2.20;;
11313;SDS011;5712;48.858;9.206;2024-02-26T11:06:31;2.30;;;2.10;;
11313;SDS011;5712;48.858;9.206;2024-02-26T11:08:59;2.83;;;2.00;;
11313;SDS011;5712;48.858;9.206;2024-02-26T11:11:27;1.97;;;1.70;;
11313;SDS011;5712;48.858;9.206;2024-02-26T11:13:56;1.83;;;1.57;;
11313;SDS011;5712;48.858;9.206;2024-02-26T11:16:24;1.60;;;1.40;;
11313;SDS011;5712;48.858;9.206;2024-02-26T11:18:52;1.73;;;1.47;;
11313;SDS011;5712;48.858;9.206;2024-02-26T11:21:20;1.60;;;1.50;;
11313;SDS011;5712;48.858;9.206;2024-02-26T11:23:52;1.83;;;1.40;;
11313;SDS011;5712;48.858;9.206;2024-02-26T11:26:19;1.33;;;1.20;;
11313;SDS011;5712;48.858;9.206;2024-02-26T11:28:47;1.80;;;1.23;;
11313;SDS011;5712;48.858;9.206;2024-02-26T11:31:16;1.53;;;1.43;;
11313;SDS011;5712;48.858;9.206;2024-02-26T11:33:51;1.87;;;1.50;;
11313;SDS011;5712;48.858;9.206;2024-02-26T11:36:18;1.60;;;1.40;;
11313;SDS011;5712;48.858;9.206;2024-02-26T11:38:46;2.70;;;1.50;;
11313;SDS011;5712;48.858;9.206;2024-02-26T11:41:16;3.03;;;1.53;;
11313;SDS011;5712;48.858;9.206;2024-02-26T11:43:49;1.70;;;1.50;;
11313;SDS011;5712;48.858;9.206;2024-02-26T11:46:28;1.50;;;1.40;;
11313;SDS011;5712;48.858;9.206;2024-02-26T11:48:58;1.77;;;1.50;;
11313;SDS011;5712;48.858;9.206;2024-02-26T11:51:25;1.70;;;1.40;;
11313;SDS011;5712;48.858;9.206;2024-02-26T11:53:54;2.53;;;1.37;;
11313;SDS011;5712;48.858;9.206;2024-02-26T11:56:22;2.03;;;1.57;;
11313;SDS011;5712;48.858;9.206;2024-02-26T11:58:58;2.33;;;1.80;;
11313;SDS011;5712;48.858;9.206;2024-02-26T12:01:37;1.50;;;1.30;;
11313;SDS011;5712;48.858;9.206;2024-02-26T12:04:04;2.60;;;1.60;;
11313;SDS011;5712;48.858;9.206;2024-02-26T12:06:31;2.07;;;1.50;;
11313;SDS011;5712;48.858;9.206;2024-02-26T12:09:05;4.07;;;1.40;;
11313;SDS011;5712;48.858;9.206;2024-02-26T12:11:33;2.00;;;1.63;;
11313;SDS011;5712;48.858;9.206;2024-02-26T12:14:05;2.00;;;1.80;;
11313;SDS011;5712;48.858;9.206;2024-02-26T12:16:38;2.25;;;1.60;;
11313;SDS011;5712;48.858;9.206;2024-02-26T12:19:05;1.70;;;1.40;;
11313;SDS011;5712;48.858;9.206;2024-02-26T12:21:34;1.90;;;1.50;;
11313;SDS011;5712;48.858;9.206;2024-02-26T12:24:09;1.50;;;1.40;;
11313;SDS011;5712;48.858;9.206;2024-02-26T12:26:37;1.90;;;1.70;;
11313;SDS011;5712;48.858;9.206;2024-02-26T12:29:03;1.37;;;1.27;;
11313;SDS011;5712;48.858;9.206;2024-02-26T12:31:30;2.17;;;1.70;;
11313;SDS011;5712;48.858;9.206;2024-02-26T12:33:59;2.23;;;1.40;;
11313;SDS011;5712;48.858;9.206;2024-02-26T12:36:26;2.37;;;1.53;;
11313;SDS011;5712;48.858;9.206;2024-02-26T12:38:53;1.50;;;1.30;;
11313;SDS011;5712;48.858;9.206;2024-02-26T12:41:20;1.90;;;1.63;;
11313;SDS011;5712;48.858;9.206;2024-02-26T12:43:47;1.50;;;1.30;;
11313;SDS011;5712;48.858;9.206;2024-02-26T12:46:13;1.60;;;1.50;;
11313;SDS011;5712;48.858;9.206;2024-02-26T12:48:41;2.10;;;1.30;;
11313;SDS011;5712;48.858;9.206;2024-02-26T12:51:10;3.20;;;1.60;;
11313;SDS011;5712;48.858;9.206;2024-02-26T12:53:38;2.03;;;1.30;;
11313;SDS011;5712;48.858;9.206;2024-02-26T12:56:05;2.57;;;1.60;;
11313;SDS011;5712;48.858;9.206;2024-02-26T12:58:33;1.57;;;1.40;;
11313;SDS011;5712;48.858;9.206;2024-02-26T13:01:03;1.87;;;1.60;;
11313;SDS011;5712;48.858;9.206;2024-02-26T13:03:30;1.87;;;1.30;;
11313;SDS011;5712;48.858;9.206;2024-02-26T13:05:57;2.10;;;1.20;;
11313;SDS011;5712;48.858;9.206;2024-02-26T13:08:25;2.40;;;1.50;;
11313;SDS011;5712;48.858;9.206;2024-02-26T13:10:52;1.83;;;1.40;;
11313;SDS011;5712;48.858;9.206;2024-02-26T13:13:18;1.53;;;1.30;;
11313;SDS011;5712;48.858;9.206;2024-02-26T13:15:46;1.70;;;1.57;;
11313;SDS011;5712;48.858;9.206;2024-02-26T13:18:13;2.87;;;1.50;;
11313;SDS011;5712;48.858;9.206;2024-02-26T13:20:40;2.07;;;1.30;;
11313;SDS011;5712;48.858;9.206;2024-02-26T13:23:07;1.67;;;1.33;;
11313;SDS011;5712;48.858;9.206;2024-02-26T13:25:38;1.67;;;1.27;;
11313;SDS011;5712;48.858;9.206;2024-02-26T13:28:06;1.43;;;1.10;;
11313;SDS011;5712;48.858;9.206;2024-02-26T13:30:34;1.80;;;1.20;;
11313;SDS011;5712;48.858;9.206;2024-02-26T13:33:06;1.73;;;0.90;;
11313;SDS011;5712;48.858;9.206;2024-02-26T13:35:34;1.20;;;1.10;;
11313;SDS011;5712;48.858;9.206;2024-02-26T13:38:01;1.17;;;1.07;;
11313;SDS011;5712;48.858;9.206;2024-02-26T13:40:28;1.03;;;0.93;;
11313;SDS011;5712;48.858;9.206;2024-02-26T13:42:56;3.07;;;1.00;;
11313;SDS011;5712;48.858;9.206;2024-02-26T13:45:23;1.17;;;0.90;;
11313;SDS011;5712;48.858;9.206;2024-02-26T13:47:49;1.00;;;0.90;;
11313;SDS011;5712;48.858;9.206;2024-02-26T13:50:16;1.17;;;0.90;;
11313;SDS011;5712;48.858;9.206;2024-02-26T13:52:46;1.63;;;0.90;;
11313;SDS011;5712;48.858;9.206;2024-02-26T13:55:13;1.30;;;0.90;;
11313;SDS011;5712;48.858;9.206;2024-02-26T13:57:40;1.87;;;0.93;;
11313;SDS011;5712;48.858;9.206;2024-02-26T14:00:09;0.90;;;0.90;;
11313;SDS011;5712;48.858;9.206;2024-02-26T14:02:36;0.90;;;0.70;;
11313;SDS011;5712;48.858;9.206;2024-02-26T14:05:03;0.60;;;0.60;;
11313;SDS011;5712;48.858;9.206;2024-02-26T14:07:30;2.90;;;2.10;;
11313;SDS011;5712;48.858;9.206;2024-02-26T14:09:57;0.60;;;0.60;;
11313;SDS011;5712;48.858;9.206;2024-02-26T14:12:24;1.43;;;0.80;;
11313;SDS011;5712;48.858;9.206;2024-02-26T14:14:51;0.80;;;0.60;;
11313;SDS011;5712;48.858;9.206;2024-02-26T14:17:20;0.37;;;0.37;;
11313;SDS011;5712;48.858;9.206;2024-02-26T14:19:47;0.77;;;0.50;;
11313;SDS011;5712;48.858;9.206;2024-02-26T14:22:14;0.47;;;0.47;;
11313;SDS011;5712;48.858;9.206;2024-02-26T14:24:41;0.30;;;0.30;;
11313;SDS011;5712;48.858;9.206;2024-02-26T14:27:08;0.30;;;0.30;;
11313;SDS011;5712;48.858;9.206;2024-02-26T14:29:37;0.30;;;0.30;;
11313;SDS011;5712;48.858;9.206;2024-02-26T14:32:05;0.63;;;0.50;;
11313;SDS011;5712;48.858;9.206;2024-02-26T14:34:33;0.73;;;0.40;;
11313;SDS011;5712;48.858;9.206;2024-02-26T14:36:59;0.43;;;0.40;;
11313;SDS011;5712;48.858;9.206;2024-02-26T14:39:26;0.40;;;0.30;;
11313;SDS011;5712;48.858;9.206;2024-02-26T14:41:52;0.30;;;0.30;;
11313;SDS011;5712;48.858;9.206;2024-02-26T14:44:19;0.60;;;0.50;;
11313;SDS011;5712;48.858;9.206;2024-02-26T14:46:45;0.50;;;0.50;;
11313;SDS011;5712;48.858;9.206;2024-02-26T14:49:12;0.93;;;0.60;;
11313;SDS011;5712;48.858;9.206;2024-02-26T14:51:40;1.03;;;0.50;;
11313;SDS011;5712;48.858;9.206;2024-02-26T14:54:07;0.50;;;0.40;;
11313;SDS011;5712;48.858;9.206;2024-02-26T14:56:33;0.50;;;0.50;;
11313;SDS011;5712;48.858;9.206;2024-02-26T14:59:00;0.60;;;0.50;;
11313;SDS011;5712;48.858;9.206;2024-02-26T15:01:26;1.00;;;0.60;;